Time;durP1;ratioP1;P1;durP2;ratioP2;P2;SDS_P1;SDS_P2;PMS_P1;PMS_P2;Temp;Humidity;BMP_temperature;BMP_pressure;BME280_temperature;BME280_humidity;BME280_pressure;Samples;Min_cycle;Max_cycle;Signal;HPM_P1;HPM_P2
2021/12/08 00:00:28;;;;;;;3.93;1.20;;;5.30;96.20;;;;;;5073923;28;20027;-83
2021/12/08 00:02:55;;;;;;;4.40;1.00;;;5.30;96.30;;;;;;5078911;28;20457;-83
2021/12/08 00:05:22;;;;;;;2.57;1.10;;;5.20;96.20;;;;;;5084723;28;20028;-82
2021/12/08 00:07:49;;;;;;;1.70;0.83;;;5.30;96.50;;;;;;5071440;28;20034;-83
2021/12/08 00:10:29;;;;;;;2.40;0.90;;;5.30;96.90;;;;;;5075234;28;20123;-83
2021/12/08 00:13:07;;;;;;;3.00;0.83;;;5.30;96.90;;;;;;5080455;28;20055;-82
2021/12/08 00:15:39;;;;;;;2.03;1.00;;;5.30;96.30;;;;;;5090674;28;20063;-83
2021/12/08 00:18:08;;;;;;;2.37;1.10;;;5.30;97.30;;;;;;5093424;28;20051;-82
2021/12/08 00:20:35;;;;;;;1.87;0.80;;;5.30;97.20;;;;;;5093399;28;20031;-82
2021/12/08 00:23:02;;;;;;;6.60;1.13;;;5.30;97.90;;;;;;5092756;28;20028;-84
2021/12/08 00:25:29;;;;;;;6.60;1.20;;;5.30;98.40;;;;;;5092747;28;20097;-83
2021/12/08 00:27:55;;;;;;;2.80;0.93;;;5.20;97.80;;;;;;5093120;28;20030;-82
2021/12/08 00:30:21;;;;;;;2.87;1.07;;;5.20;97.70;;;;;;5093603;28;20073;-82
2021/12/08 00:32:48;;;;;;;2.33;1.00;;;5.30;97.60;;;;;;5093376;28;20103;-82
2021/12/08 00:35:14;;;;;;;1.40;0.80;;;5.20;97.70;;;;;;5093213;28;20035;-82
2021/12/08 00:37:40;;;;;;;1.43;1.03;;;5.20;97.90;;;;;;5093188;28;20032;-82
2021/12/08 00:40:10;;;;;;;3.67;0.87;;;5.20;98.10;;;;;;5093050;28;20115;-83
2021/12/08 00:42:36;;;;;;;1.70;0.80;;;5.30;98.40;;;;;;5093286;28;20024;-83
2021/12/08 00:45:06;;;;;;;4.00;1.10;;;5.20;98.90;;;;;;5092805;28;20058;-83
2021/12/08 00:47:32;;;;;;;2.20;1.13;;;5.20;99.90;;;;;;5093375;28;20115;-83
2021/12/08 00:49:58;;;;;;;3.63;1.30;;;5.20;99.90;;;;;;5093040;28;20044;-82
2021/12/08 00:52:28;;;;;;;1.93;0.93;;;5.30;99.90;;;;;;5092768;28;20020;-82
2021/12/08 00:54:54;;;;;;;2.57;1.10;;;5.30;99.90;;;;;;5093744;28;20016;-82
2021/12/08 00:57:20;;;;;;;3.13;1.33;;;5.30;99.90;;;;;;5093516;28;20284;-83
2021/12/08 00:59:46;;;;;;;3.23;1.10;;;5.20;99.90;;;;;;5094101;28;20028;-83
2021/12/08 01:02:11;;;;;;;3.07;1.13;;;5.30;99.90;;;;;;5093716;28;20020;-82
2021/12/08 01:04:37;;;;;;;4.20;1.40;;;5.20;99.90;;;;;;5093858;28;20028;-83
2021/12/08 01:07:03;;;;;;;2.37;1.20;;;5.30;99.90;;;;;;5092640;28;20077;-83
2021/12/08 01:09:29;;;;;;;2.00;1.20;;;5.20;99.90;;;;;;5093162;28;20042;-83
2021/12/08 01:11:57;;;;;;;3.90;1.37;;;5.30;99.90;;;;;;5098825;28;20456;-82
2021/12/08 01:14:23;;;;;;;5.27;1.60;;;5.20;99.90;;;;;;5113547;28;20028;-82
2021/12/08 01:16:51;;;;;;;6.30;1.40;;;5.20;99.90;;;;;;5096151;28;20028;-82
2021/12/08 01:19:17;;;;;;;3.40;1.73;;;5.30;99.90;;;;;;5095708;28;20475;-82
2021/12/08 01:21:43;;;;;;;3.53;1.70;;;5.20;99.90;;;;;;5114179;28;20073;-82
2021/12/08 01:24:10;;;;;;;5.37;1.97;;;5.20;99.90;;;;;;5095328;28;20023;-82
2021/12/08 01:26:35;;;;;;;5.03;2.30;;;5.20;99.90;;;;;;5096270;28;20016;-83
2021/12/08 01:29:02;;;;;;;5.60;2.17;;;5.20;99.90;;;;;;5096096;28;20027;-82
2021/12/08 01:31:28;;;;;;;6.03;2.43;;;5.20;99.90;;;;;;5095943;28;20444;-83
2021/12/08 01:33:54;;;;;;;7.00;2.57;;;5.10;99.90;;;;;;5095686;28;20024;-82
2021/12/08 01:36:20;;;;;;;6.23;2.03;;;5.10;99.90;;;;;;5095566;28;20503;-83
2021/12/08 01:38:46;;;;;;;5.13;2.70;;;5.20;99.90;;;;;;5096030;28;20024;-82
2021/12/08 01:41:12;;;;;;;5.03;2.40;;;5.10;99.90;;;;;;5095283;28;20028;-83
2021/12/08 01:43:43;;;;;;;7.27;2.40;;;4.90;99.90;;;;;;5113917;28;20027;-83
2021/12/08 01:46:14;;;;;;;4.00;2.40;;;5.00;99.90;;;;;;5099202;28;20032;-83
2021/12/08 01:48:42;;;;;;;5.47;2.27;;;5.00;99.90;;;;;;5099129;28;20024;-83
2021/12/08 01:51:14;;;;;;;4.73;2.27;;;5.00;99.90;;;;;;5099527;28;20016;-83
2021/12/08 01:53:42;;;;;;;4.90;2.17;;;5.00;99.90;;;;;;5117620;28;20023;-83
2021/12/08 01:56:09;;;;;;;6.00;2.13;;;5.00;99.90;;;;;;5116710;28;20043;-83
2021/12/08 01:58:35;;;;;;;3.20;1.97;;;5.00;99.90;;;;;;5099476;28;20020;-83
2021/12/08 02:01:07;;;;;;;3.30;1.70;;;4.90;99.90;;;;;;5117497;28;20340;-81
2021/12/08 02:03:34;;;;;;;3.97;2.08;;;5.00;99.90;;;;;;5117217;28;20090;-83
2021/12/08 02:06:02;;;;;;;3.50;1.90;;;5.00;99.90;;;;;;5099359;28;20032;-83
2021/12/08 02:08:28;;;;;;;3.33;1.60;;;5.00;99.90;;;;;;5116657;28;20103;-83
2021/12/08 02:10:54;;;;;;;2.43;1.60;;;5.00;99.90;;;;;;5099350;28;20111;-83
2021/12/08 02:13:19;;;;;;;7.70;2.00;;;4.90;99.90;;;;;;5098611;28;20043;-83
2021/12/08 02:15:45;;;;;;;3.80;1.93;;;4.90;99.90;;;;;;5099176;28;20026;-83
2021/12/08 02:18:14;;;;;;;3.27;1.63;;;5.00;99.90;;;;;;5116603;28;20030;-83
2021/12/08 02:20:43;;;;;;;4.13;1.87;;;5.00;99.90;;;;;;5099254;28;20023;-83
2021/12/08 02:23:10;;;;;;;2.20;1.60;;;5.00;99.90;;;;;;5098166;28;20060;-82
2021/12/08 02:25:36;;;;;;;4.90;1.67;;;5.00;99.90;;;;;;5098752;28;20030;-83
2021/12/08 02:28:03;;;;;;;3.37;1.50;;;5.00;99.90;;;;;;5098520;28;20023;-83
2021/12/08 02:30:38;;;;;;;6.23;1.73;;;5.00;99.90;;;;;;5098296;28;20102;-83
2021/12/08 02:47:11;;;;;;;3.73;2.10;;;4.80;99.90;;;;;;5116721;28;20034;-82
2021/12/08 02:49:38;;;;;;;4.67;1.80;;;4.80;99.90;;;;;;5098907;28;20107;-82
2021/12/08 02:52:07;;;;;;;4.73;2.17;;;4.90;99.90;;;;;;5116498;28;20037;-82
2021/12/08 02:54:42;;;;;;;3.37;1.90;;;4.80;99.90;;;;;;5097795;28;20349;-82
2021/12/08 02:57:09;;;;;;;6.50;2.33;;;4.80;99.90;;;;;;5094263;28;20024;-84
2021/12/08 02:59:37;;;;;;;7.57;2.33;;;4.80;99.90;;;;;;5078184;28;20114;-82
2021/12/08 03:02:03;;;;;;;5.13;2.60;;;4.80;99.90;;;;;;5077870;28;20016;-82
2021/12/08 03:04:29;;;;;;;4.27;2.23;;;4.80;99.90;;;;;;5077417;28;20024;-81
2021/12/08 03:06:55;;;;;;;3.27;2.00;;;4.90;99.90;;;;;;5095836;28;20020;-82
2021/12/08 03:09:21;;;;;;;4.37;2.00;;;4.90;99.90;;;;;;5077341;28;20056;-83
2021/12/08 03:11:49;;;;;;;5.03;1.87;;;4.90;99.90;;;;;;5077541;28;20047;-82
2021/12/08 03:14:16;;;;;;;3.73;1.63;;;4.90;99.90;;;;;;5077377;28;20109;-83
2021/12/08 03:16:48;;;;;;;2.80;1.80;;;4.90;99.90;;;;;;5077714;28;20369;-83
2021/12/08 03:19:14;;;;;;;;;;;4.90;99.90;;;;;;5095798;28;20051;-83
2021/12/08 03:21:40;;;;;;;4.43;2.00;;;5.00;99.90;;;;;;5095510;28;19900;-82
2021/12/08 03:24:21;;;;;;;7.43;2.17;;;5.00;99.90;;;;;;5097386;28;20046;-83
2021/12/08 03:29:40;;;;;;;4.30;1.95;;;5.00;99.90;;;;;;5115309;28;20028;-83
2021/12/08 03:32:11;;;;;;;2.77;1.80;;;4.90;99.90;;;;;;5097736;28;20024;-82
2021/12/08 03:34:41;;;;;;;2.53;1.77;;;5.00;99.90;;;;;;5097940;28;20047;-83
2021/12/08 03:37:09;;;;;;;6.73;2.70;;;4.90;99.90;;;;;;5097822;28;20474;-82
2021/12/08 03:39:38;;;;;;;5.70;2.33;;;5.00;99.90;;;;;;5115641;28;20065;-81
2021/12/08 03:42:04;;;;;;;4.53;2.20;;;5.00;99.90;;;;;;5097428;28;20016;-82
2021/12/08 03:44:30;;;;;;;5.97;2.23;;;5.00;99.90;;;;;;5096960;28;20160;-82
2021/12/08 03:47:00;;;;;;;3.07;2.00;;;5.00;99.90;;;;;;5097904;28;20084;-83
2021/12/08 03:49:28;;;;;;;3.50;1.63;;;4.90;99.90;;;;;;5097207;28;20028;-82
2021/12/08 03:52:00;;;;;;;5.50;1.90;;;4.90;99.90;;;;;;5097219;28;20015;-81
2021/12/08 03:54:26;;;;;;;;;;;4.90;99.90;;;;;;5097168;28;20105;-82
2021/12/08 03:56:52;;;;;;;4.40;1.93;;;4.90;99.90;;;;;;5097277;28;20324;-81
2021/12/08 03:59:17;;;;;;;3.67;1.83;;;5.00;99.90;;;;;;5114587;28;20416;-81
2021/12/08 04:01:43;;;;;;;3.67;1.57;;;4.90;99.90;;;;;;5097232;28;20394;-81
2021/12/08 04:04:10;;;;;;;3.60;1.73;;;4.90;99.90;;;;;;5097024;28;20096;-82
2021/12/08 04:06:52;;;;;;;7.17;2.20;;;4.90;99.90;;;;;;5096651;28;20027;-82
2021/12/08 04:09:32;;;;;;;5.35;2.40;;;4.90;99.90;;;;;;5114031;28;20019;-82
2021/12/08 04:11:58;;;;;;;4.23;2.00;;;4.90;99.90;;;;;;5096872;28;20043;-81
2021/12/08 04:14:28;;;;;;;3.47;1.77;;;4.90;99.90;;;;;;5096056;28;20077;-80
2021/12/08 04:17:05;;;;;;;4.00;1.93;;;4.90;99.90;;;;;;5115099;28;20027;-81
2021/12/08 04:19:31;;;;;;;4.53;1.80;;;4.90;99.90;;;;;;5096589;28;20112;-81
2021/12/08 04:22:01;;;;;;;6.27;2.20;;;5.00;99.90;;;;;;5114759;28;20076;-81
2021/12/08 04:24:28;;;;;;;3.63;2.20;;;5.00;99.90;;;;;;5096259;28;20023;-82
2021/12/08 04:26:57;;;;;;;4.33;2.00;;;5.00;99.90;;;;;;5096818;28;20019;-80
2021/12/08 04:29:29;;;;;;;6.70;2.20;;;4.90;99.90;;;;;;5096476;28;20111;-82
2021/12/08 04:31:56;;;;;;;3.60;2.42;;;4.90;99.90;;;;;;5114771;28;20023;-81
2021/12/08 04:34:28;;;;;;;6.87;2.77;;;4.90;99.90;;;;;;5096203;28;20410;-81
2021/12/08 04:37:00;;;;;;;4.43;2.45;;;5.00;99.90;;;;;;5114825;28;20156;-81
2021/12/08 04:39:52;;;;;;;5.97;2.57;;;5.00;99.90;;;;;;5096212;28;20380;-82
2021/12/08 04:42:28;;;;;;;4.70;2.60;;;5.00;99.90;;;;;;5114386;28;20023;-82
2021/12/08 04:45:02;;;;;;;6.33;2.80;;;4.90;99.90;;;;;;5114772;28;20115;-81
2021/12/08 04:53:01;;;;;;;6.67;2.60;;;4.90;99.90;;;;;;5114797;28;20034;-81
2021/12/08 05:09:14;;;;;;;3.57;2.27;;;4.80;99.90;;;;;;5114432;28;20024;-81
2021/12/08 05:11:46;;;;;;;7.17;2.60;;;4.80;99.90;;;;;;5095777;28;20419;-80
2021/12/08 05:14:32;;;;;;;;;;;4.80;99.90;;;;;;5096999;28;20576;-81
2021/12/08 05:17:04;;;;;;;6.63;2.43;;;4.90;99.90;;;;;;5114607;28;19904;-82
2021/12/08 05:19:32;;;;;;;5.25;2.22;;;4.90;99.90;;;;;;5115222;28;20023;-82
2021/12/08 05:22:05;;;;;;;6.00;2.80;;;4.90;99.90;;;;;;5100101;28;20020;-81
2021/12/08 05:24:35;;;;;;;3.97;2.30;;;4.90;99.90;;;;;;5116485;28;20028;-82
2021/12/08 05:27:11;;;;;;;6.73;2.77;;;4.90;99.90;;;;;;5094311;28;20041;-81
2021/12/08 05:29:54;;;;;;;3.60;2.30;;;4.80;99.90;;;;;;5099642;28;20023;-81
2021/12/08 05:32:20;;;;;;;4.73;2.53;;;4.80;99.90;;;;;;5099410;28;20057;-82
2021/12/08 05:34:46;;;;;;;4.27;2.70;;;4.80;99.90;;;;;;5117939;28;20028;-81
2021/12/08 05:37:14;;;;;;;4.23;2.73;;;4.90;99.90;;;;;;5118057;28;20027;-81
2021/12/08 05:39:40;;;;;;;7.73;2.83;;;4.90;99.90;;;;;;5117818;28;20071;-82
2021/12/08 05:42:11;;;;;;;4.57;2.53;;;4.90;99.90;;;;;;5118282;28;20034;-81
2021/12/08 05:44:39;;;;;;;3.53;2.03;;;4.90;99.90;;;;;;5099541;28;20036;-81
2021/12/08 05:47:09;;;;;;;5.73;2.10;;;5.00;99.90;;;;;;5099966;28;20015;-81
2021/12/08 05:49:35;;;;;;;3.60;2.27;;;4.90;99.90;;;;;;5099410;28;20359;-81
2021/12/08 05:52:01;;;;;;;3.63;1.97;;;5.00;99.90;;;;;;5099601;28;20102;-82
2021/12/08 05:54:32;;;;;;;5.07;2.30;;;5.00;99.90;;;;;;5098925;28;20035;-82
2021/12/08 05:57:05;;;;;;;4.77;2.40;;;4.90;99.90;;;;;;5099667;28;20019;-82
2021/12/08 05:59:31;;;;;;;6.33;2.10;;;4.90;99.90;;;;;;5099116;28;20519;-81
2021/12/08 06:02:04;;;;;;;6.07;2.17;;;4.90;99.90;;;;;;5117669;28;20028;-82
2021/12/08 06:04:31;;;;;;;6.63;2.10;;;4.90;99.90;;;;;;5099252;28;20020;-82
2021/12/08 06:06:58;;;;;;;5.33;2.33;;;4.90;99.90;;;;;;5099556;28;20028;-82
2021/12/08 06:09:25;;;;;;;6.23;2.60;;;4.90;99.90;;;;;;5116847;28;20026;-82
2021/12/08 06:11:52;;;;;;;4.67;2.27;;;4.90;99.90;;;;;;5117094;28;20375;-81
2021/12/08 06:14:20;;;;;;;6.03;2.67;;;4.90;99.90;;;;;;5099145;28;20035;-82
2021/12/08 06:16:48;;;;;;;6.27;2.77;;;4.90;99.90;;;;;;5098941;28;20032;-82
2021/12/08 06:19:17;;;;;;;4.90;2.00;;;4.90;99.90;;;;;;5098804;28;20149;-82
2021/12/08 06:21:43;;;;;;;4.57;2.33;;;5.00;99.90;;;;;;5098275;28;20023;-82
2021/12/08 06:24:11;;;;;;;4.80;2.27;;;4.90;99.90;;;;;;5117077;28;20073;-82
2021/12/08 06:26:38;;;;;;;4.43;2.50;;;4.90;99.90;;;;;;5116009;28;20023;-82
2021/12/08 06:29:06;;;;;;;6.20;2.57;;;4.90;99.90;;;;;;5101126;28;20100;-82
2021/12/08 06:31:33;;;;;;;3.80;1.90;;;4.80;99.90;;;;;;5094931;28;20070;-82
2021/12/08 06:33:59;;;;;;;5.53;2.30;;;4.90;99.90;;;;;;5078524;28;20053;-82
2021/12/08 06:36:50;;;;;;;5.33;2.70;;;4.90;99.90;;;;;;5077929;28;20067;-82
2021/12/08 06:39:24;;;;;;;5.20;3.20;;;4.90;99.90;;;;;;5077174;28;20123;-82
2021/12/08 06:41:55;;;;;;;4.80;3.10;;;4.90;99.90;;;;;;5096174;28;20035;-82
2021/12/08 06:44:25;;;;;;;4.93;2.57;;;4.90;99.90;;;;;;5097435;28;20027;-81
2021/12/08 06:46:52;;;;;;;4.47;2.87;;;4.90;99.90;;;;;;5117329;28;20035;-82
2021/12/08 06:49:21;;;;;;;9.03;3.90;;;5.00;99.90;;;;;;5098656;28;20028;-82
2021/12/08 06:52:14;;;;;;;8.63;3.77;;;5.00;99.90;;;;;;5098064;28;20027;-81
2021/12/08 06:54:52;;;;;;;7.67;3.13;;;4.90;99.90;;;;;;5096321;28;20042;-81
2021/12/08 06:57:33;;;;;;;5.53;2.90;;;4.90;99.90;;;;;;5098082;28;20069;-81
2021/12/08 07:00:14;;;;;;;6.73;3.23;;;5.00;99.90;;;;;;5097932;28;20028;-81
2021/12/08 07:05:27;;;;;;;7.63;3.33;;;5.00;99.90;;;;;;5116019;28;20059;-81
2021/12/08 07:07:57;;;;;;;7.33;2.63;;;5.00;99.90;;;;;;5116185;28;20019;-82
2021/12/08 07:10:29;;;;;;;6.43;2.80;;;4.90;99.90;;;;;;5097485;28;20482;-82
2021/12/08 07:13:03;;;;;;;5.37;2.60;;;5.00;99.90;;;;;;5096942;28;20046;-81
2021/12/08 07:15:45;;;;;;;6.17;2.80;;;5.00;99.90;;;;;;5115024;28;20055;-82
2021/12/08 07:18:16;;;;;;;5.00;2.53;;;4.90;99.90;;;;;;5097698;28;20082;-81
2021/12/08 07:20:54;;;;;;;5.57;2.85;;;4.90;99.90;;;;;;5097574;28;20483;-81
2021/12/08 07:23:36;;;;;;;5.83;3.17;;;4.80;99.90;;;;;;5115351;28;20024;-82
2021/12/08 07:26:05;;;;;;;5.93;3.28;;;4.80;99.90;;;;;;5097537;28;20103;-81
2021/12/08 07:28:30;;;;;;;6.10;3.10;;;4.80;99.90;;;;;;5096750;28;20032;-81
2021/12/08 07:31:00;;;;;;;6.13;2.67;;;4.80;99.90;;;;;;5097485;28;20034;-82
2021/12/08 07:33:27;;;;;;;5.73;2.97;;;4.80;99.90;;;;;;5097171;28;20119;-81
2021/12/08 07:35:56;;;;;;;5.13;2.50;;;4.70;99.90;;;;;;5115482;28;20035;-81
2021/12/08 07:38:26;;;;;;;6.33;2.53;;;4.80;99.90;;;;;;5115432;28;20048;-81
2021/12/08 07:41:06;;;;;;;4.17;2.30;;;4.70;99.90;;;;;;5097113;28;20023;-81
2021/12/08 07:43:34;;;;;;;3.00;2.10;;;4.70;99.90;;;;;;5114454;28;20125;-82
2021/12/08 07:46:06;;;;;;;4.93;2.60;;;4.80;99.90;;;;;;5096657;28;20027;-81
2021/12/08 07:48:35;;;;;;;;;;;4.80;99.90;;;;;;5108121;28;20081;-81
2021/12/08 07:51:07;;;;;;;4.17;2.30;;;4.80;99.90;;;;;;5108801;28;19986;-82
2021/12/08 07:53:34;;;;;;;5.07;2.50;;;4.80;99.90;;;;;;5088182;28;20032;-81
2021/12/08 07:56:04;;;;;;;4.33;2.20;;;4.70;99.90;;;;;;5077793;28;20039;-83
2021/12/08 07:58:32;;;;;;;4.33;2.37;;;4.70;99.90;;;;;;5084691;28;20035;-81
2021/12/08 08:01:09;;;;;;;6.03;2.30;;;4.80;99.90;;;;;;5077338;28;20023;-82
2021/12/08 08:03:35;;;;;;;4.53;2.43;;;4.80;99.90;;;;;;5081151;28;20029;-82
2021/12/08 08:06:06;;;;;;;7.23;2.40;;;4.80;99.90;;;;;;5090982;28;20061;-81
2021/12/08 08:08:34;;;;;;;4.50;2.30;;;4.80;99.90;;;;;;5106603;28;20023;-81
2021/12/08 08:11:16;;;;;;;3.83;2.23;;;4.80;99.90;;;;;;5078831;28;20035;-80
2021/12/08 08:13:42;;;;;;;5.80;2.45;;;4.80;99.90;;;;;;5086391;28;20193;-80
2021/12/08 08:16:14;;;;;;;6.70;2.40;;;4.80;99.90;;;;;;5086258;28;20118;-81
2021/12/08 08:18:48;;;;;;;3.77;2.30;;;4.80;99.90;;;;;;5078454;28;20118;-81
2021/12/08 08:21:21;;;;;;;3.87;2.50;;;4.90;99.90;;;;;;5090350;28;20024;-81
2021/12/08 08:23:47;;;;;;;5.37;2.37;;;4.90;99.90;;;;;;5101611;28;20462;-80
2021/12/08 08:26:14;;;;;;;5.93;2.13;;;4.80;99.90;;;;;;5113626;28;20043;-81
2021/12/08 08:28:42;;;;;;;5.87;2.50;;;4.90;99.90;;;;;;5094689;28;20035;-81
2021/12/08 08:31:12;;;;;;;7.57;2.87;;;4.90;99.90;;;;;;5078518;28;20107;-81
2021/12/08 08:33:40;;;;;;;4.87;2.60;;;4.90;99.90;;;;;;5093834;28;20028;-81
2021/12/08 08:36:13;;;;;;;4.00;2.70;;;5.00;99.90;;;;;;5112859;28;20031;-82
2021/12/08 08:38:54;;;;;;;6.53;2.50;;;5.00;99.90;;;;;;5086107;28;20059;-81
2021/12/08 08:41:34;;;;;;;5.07;2.70;;;4.90;99.90;;;;;;5072880;28;20032;-80
2021/12/08 08:44:04;;;;;;;14.30;6.20;;;5.00;99.90;;;;;;5101570;28;20035;-82
2021/12/08 08:46:35;;;;;;;11.07;5.10;;;5.00;99.90;;;;;;5094379;28;20082;-83
2021/12/08 08:49:06;;;;;;;5.43;3.00;;;5.00;99.90;;;;;;5118855;28;20106;-81
2021/12/08 08:51:41;;;;;;;5.00;2.67;;;5.00;99.90;;;;;;5094652;28;20073;-83
2021/12/08 08:54:15;;;;;;;5.33;3.00;;;5.10;99.90;;;;;;5083958;28;20028;-81
2021/12/08 08:56:45;;;;;;;5.07;3.00;;;5.10;99.90;;;;;;5097317;28;20547;-82
2021/12/08 08:59:21;;;;;;;9.70;3.73;;;5.20;99.90;;;;;;5099686;28;20058;-82
2021/12/08 09:01:51;;;;;;;9.17;3.80;;;5.20;99.90;;;;;;5114945;28;20655;-82
2021/12/08 09:04:31;;;;;;;8.33;3.93;;;5.20;99.90;;;;;;5084116;28;20067;-81
2021/12/08 09:07:02;;;;;;;8.47;4.17;;;5.20;99.90;;;;;;5112599;28;20110;-82
2021/12/08 09:09:34;;;;;;;7.38;3.83;;;5.20;99.90;;;;;;5084038;28;20026;-82
2021/12/08 09:12:09;;;;;;;6.05;3.92;;;5.20;99.90;;;;;;5095452;28;20079;-81
2021/12/08 09:14:44;;;;;;;8.63;3.90;;;5.30;99.90;;;;;;5114393;28;20044;-81
2021/12/08 09:18:08;;;;;;;6.70;4.10;;;5.30;99.90;;;;;;5101610;28;20039;-81
2021/12/08 09:20:59;;;;;;;6.83;3.70;;;5.30;99.90;;;;;;5038056;28;20047;-81
2021/12/08 09:23:34;;;;;;;9.07;4.20;;;5.30;99.90;;;;;;5090862;28;20096;-81
2021/12/08 09:26:04;;;;;;;8.50;4.20;;;5.30;99.90;;;;;;5096405;28;20032;-82
2021/12/08 09:28:45;;;;;;;8.67;4.20;;;5.30;99.90;;;;;;5081332;28;20039;-82
2021/12/08 09:31:28;;;;;;;8.07;4.40;;;5.30;99.90;;;;;;5098790;28;20034;-81
2021/12/08 09:34:25;;;;;;;13.30;4.73;;;5.30;99.90;;;;;;5086591;28;20147;-84
2021/12/08 09:36:59;;;;;;;11.13;5.43;;;5.40;99.90;;;;;;5095723;28;20032;-84
2021/12/08 09:39:29;;;;;;;11.97;5.10;;;5.40;99.90;;;;;;5096209;28;20035;-84
2021/12/08 09:42:17;;;;;;;9.80;4.53;;;5.40;99.90;;;;;;5104367;28;20035;-83
2021/12/08 09:44:47;;;;;;;8.63;4.33;;;5.40;99.90;;;;;;5110277;28;20035;-83
2021/12/08 09:47:14;;;;;;;8.93;4.73;;;5.40;99.90;;;;;;5098438;28;20023;-83
2021/12/08 09:49:40;;;;;;;8.43;4.90;;;5.50;99.90;;;;;;5095348;28;20072;-83
2021/12/08 09:52:10;;;;;;;9.93;4.70;;;5.50;99.90;;;;;;5084120;28;20199;-83
2021/12/08 09:54:38;;;;;;;8.07;4.87;;;5.50;99.90;;;;;;5079152;28;20028;-83
2021/12/08 09:57:10;;;;;;;7.60;4.60;;;5.60;99.90;;;;;;5104322;28;20031;-83
2021/12/08 09:59:40;;;;;;;9.55;4.95;;;5.50;99.90;;;;;;5086935;28;20449;-84
2021/12/08 10:02:08;;;;;;;12.43;5.37;;;5.60;99.90;;;;;;5085914;28;20032;-83
2021/12/08 10:04:34;;;;;;;9.23;5.10;;;5.60;99.90;;;;;;5086882;28;20088;-83
2021/12/08 10:07:02;;;;;;;8.57;5.00;;;5.60;99.90;;;;;;5085751;28;20111;-83
2021/12/08 10:09:28;;;;;;;6.37;4.37;;;5.60;99.90;;;;;;5083690;28;20020;-84
2021/12/08 10:11:55;;;;;;;8.07;4.07;;;5.60;99.90;;;;;;5085096;28;20059;-83
2021/12/08 10:14:22;;;;;;;7.90;4.00;;;5.60;99.90;;;;;;5103611;28;20408;-83
2021/12/08 10:16:52;;;;;;;7.90;4.17;;;5.70;99.90;;;;;;5084955;28;20047;-83
2021/12/08 10:19:17;;;;;;;8.30;4.47;;;5.60;99.90;;;;;;5085214;28;20524;-83
2021/12/08 10:21:44;;;;;;;7.80;4.30;;;5.70;99.90;;;;;;5091463;28;20156;-83
2021/12/08 10:24:16;;;;;;;7.17;4.63;;;5.70;99.90;;;;;;5087461;28;20024;-84
2021/12/08 10:26:42;;;;;;;8.40;4.22;;;5.70;99.90;;;;;;5086108;28;20047;-84
2021/12/08 10:29:08;;;;;;;7.20;4.17;;;5.70;99.90;;;;;;5088688;28;20373;-84
2021/12/08 10:31:45;;;;;;;7.87;4.20;;;5.80;99.90;;;;;;5101766;28;20028;-84
2021/12/08 10:36:56;;;;;;;9.33;4.70;;;5.80;99.90;;;;;;5101689;28;20023;-84
2021/12/08 10:39:38;;;;;;;12.33;5.47;;;5.80;99.90;;;;;;5103997;28;20051;-83
2021/12/08 10:42:19;;;;;;;5.43;3.10;;;5.80;99.90;;;;;;5101942;28;20027;-83
2021/12/08 10:44:57;;;;;;;6.25;4.00;;;5.80;99.90;;;;;;5084922;28;20032;-83
2021/12/08 10:47:30;;;;;;;8.90;4.00;;;5.90;99.90;;;;;;5101644;28;20019;-82
2021/12/08 10:55:19;;;;;;;8.30;4.17;;;5.90;99.90;;;;;;5104344;28;20038;-83
2021/12/08 10:57:49;;;;;;;8.47;3.93;;;5.90;99.90;;;;;;5083884;28;20510;-83
2021/12/08 11:00:37;;;;;;;5.63;3.40;;;5.90;99.90;;;;;;5084566;28;20024;-84
2021/12/08 11:03:08;;;;;;;7.10;4.40;;;6.00;99.90;;;;;;5087042;28;20032;-83
2021/12/08 11:05:42;;;;;;;6.90;3.67;;;6.00;99.90;;;;;;5083776;28;20314;-83
2021/12/08 11:08:15;;;;;;;6.00;3.43;;;6.00;99.90;;;;;;5084947;28;20027;-81
2021/12/08 11:10:58;;;;;;;7.43;3.93;;;6.10;99.90;;;;;;5080535;28;20448;-80
2021/12/08 11:13:30;;;;;;;5.53;3.40;;;6.10;99.90;;;;;;5083879;28;20044;-81
2021/12/08 11:16:11;;;;;;;6.00;3.55;;;6.10;99.90;;;;;;5086189;28;20020;-81
2021/12/08 11:18:39;;;;;;;7.10;3.78;;;6.20;99.90;;;;;;5078484;28;20036;-81
2021/12/08 11:21:24;;;;;;;6.80;4.10;;;6.20;99.90;;;;;;5103259;28;20020;-81
2021/12/08 11:23:54;;;;;;;9.13;3.97;;;6.20;99.90;;;;;;5101412;28;20035;-82
2021/12/08 11:26:27;;;;;;;6.67;3.70;;;6.20;99.90;;;;;;5080390;28;20085;-81
2021/12/08 11:29:01;;;;;;;6.10;3.97;;;6.20;99.90;;;;;;5109231;28;20511;-83
2021/12/08 11:31:31;;;;;;;11.40;4.20;;;6.20;99.90;;;;;;5098439;28;20081;-83
2021/12/08 11:34:05;;;;;;;9.87;4.57;;;6.20;99.90;;;;;;5083910;28;20391;-82
2021/12/08 11:36:34;;;;;;;9.70;4.37;;;6.20;99.90;;;;;;5080915;28;20027;-82
2021/12/08 11:39:06;;;;;;;9.27;4.80;;;6.20;99.90;;;;;;5090692;28;20043;-82
2021/12/08 11:41:37;;;;;;;7.63;4.37;;;6.30;99.90;;;;;;5101719;28;20055;-83
2021/12/08 11:44:16;;;;;;;9.40;4.37;;;6.30;99.90;;;;;;5102955;28;20058;-83
2021/12/08 11:46:52;;;;;;;9.00;4.80;;;6.40;99.90;;;;;;5094212;28;20456;-83
2021/12/08 11:49:19;;;;;;;10.33;5.00;;;6.40;99.90;;;;;;5077453;28;20039;-83
2021/12/08 11:51:44;;;;;;;9.43;4.77;;;6.30;99.90;;;;;;5099346;28;20024;-83
2021/12/08 11:54:48;;;;;;;9.27;4.50;;;6.30;99.90;;;;;;5106059;28;20041;-83
2021/12/08 11:57:30;;;;;;;8.43;4.70;;;6.30;99.90;;;;;;5077389;28;20024;-83
2021/12/08 12:00:17;;;;;;;8.00;4.80;;;6.30;99.90;;;;;;5084389;28;20028;-83
2021/12/08 12:02:46;;;;;;;8.90;5.07;;;6.30;99.90;;;;;;5089003;28;20024;-83
2021/12/08 12:05:18;;;;;;;10.13;5.50;;;6.30;99.90;;;;;;5076349;28;20884;-83
2021/12/08 12:07:44;;;;;;;9.68;5.47;;;6.30;99.90;;;;;;5111108;28;20476;-83
2021/12/08 12:10:12;;;;;;;11.60;6.00;;;6.40;99.90;;;;;;5094340;28;20042;-82
2021/12/08 12:12:40;;;;;;;10.93;5.90;;;6.40;99.90;;;;;;5093111;28;20488;-83
2021/12/08 12:15:13;;;;;;;10.17;5.90;;;6.40;99.90;;;;;;5090754;28;20542;-83
2021/12/08 12:17:39;;;;;;;8.90;5.07;;;6.40;99.90;;;;;;5080551;28;20027;-83
2021/12/08 12:20:18;;;;;;;9.23;5.37;;;6.50;99.90;;;;;;5092532;28;20513;-83
2021/12/08 12:23:15;;;;;;;9.40;4.70;;;6.50;99.90;;;;;;5092955;28;20043;-83
2021/12/08 12:26:04;;;;;;;9.40;5.10;;;6.50;99.90;;;;;;5092912;28;20076;-84
2021/12/08 12:28:53;;;;;;;10.00;5.40;;;6.50;99.90;;;;;;5092728;28;20028;-83
2021/12/08 12:31:43;;;;;;;9.40;4.67;;;6.50;99.90;;;;;;5096873;28;20019;-83
2021/12/08 12:34:29;;;;;;;14.40;4.80;;;6.50;99.90;;;;;;5094041;28;20027;-83
2021/12/08 12:36:57;;;;;;;8.20;4.77;;;6.50;99.90;;;;;;5076415;28;20024;-83
2021/12/08 12:39:28;;;;;;;9.80;4.63;;;6.50;99.90;;;;;;5091374;28;20020;-82
2021/12/08 12:42:12;;;;;;;9.87;4.50;;;6.50;99.90;;;;;;5082382;28;20485;-81
2021/12/08 12:44:45;;;;;;;6.40;4.00;;;6.50;99.90;;;;;;5086318;28;20031;-81
2021/12/08 12:47:18;;;;;;;8.73;4.47;;;6.50;99.90;;;;;;5073395;28;20028;-81
2021/12/08 12:49:47;;;;;;;12.97;5.20;;;6.60;99.90;;;;;;5091463;28;20455;-82
2021/12/08 12:52:15;;;;;;;7.00;4.10;;;6.60;99.90;;;;;;5088942;28;20047;-81
2021/12/08 12:54:42;;;;;;;9.27;4.57;;;6.50;99.90;;;;;;5095032;28;20032;-81
2021/12/08 12:57:08;;;;;;;8.27;4.60;;;6.60;99.90;;;;;;5095209;28;20031;-81
2021/12/08 12:59:50;;;;;;;8.17;4.67;;;6.50;99.90;;;;;;5095179;28;20024;-82
2021/12/08 13:02:35;;;;;;;8.45;4.00;;;6.60;99.90;;;;;;5084130;28;20028;-81
2021/12/08 13:05:10;;;;;;;7.20;3.80;;;6.60;99.90;;;;;;5075552;28;20064;-81
2021/12/08 13:07:39;;;;;;;8.87;4.63;;;6.70;99.90;;;;;;5074991;28;20024;-82
2021/12/08 13:10:14;;;;;;;7.70;4.17;;;6.60;99.90;;;;;;5089835;28;20082;-81
2021/12/08 13:12:46;;;;;;;7.70;3.77;;;6.70;99.90;;;;;;5094572;28;20138;-81
2021/12/08 13:15:21;;;;;;;7.07;3.70;;;6.70;99.90;;;;;;5095932;28;20114;-80
2021/12/08 13:18:11;;;;;;;6.27;3.67;;;6.80;99.90;;;;;;5095329;28;20038;-81
2021/12/08 13:20:41;;;;;;;6.80;3.30;;;6.80;99.90;;;;;;5095226;28;20062;-81
2021/12/08 13:23:21;;;;;;;5.60;3.47;;;6.80;99.90;;;;;;5084198;28;20145;-81
2021/12/08 13:25:59;;;;;;;7.27;3.97;;;6.80;99.90;;;;;;5086529;28;20032;-81
2021/12/08 13:29:04;;;;;;;7.33;3.63;;;6.90;99.90;;;;;;5095404;28;20038;-80
2021/12/08 13:31:30;;;;;;;8.43;4.13;;;6.90;99.90;;;;;;5099037;28;20024;-81
2021/12/08 13:33:58;;;;;;;11.63;5.17;;;6.80;99.90;;;;;;5095423;28;20444;-80
2021/12/08 13:36:30;;;;;;;6.40;3.97;;;6.80;99.90;;;;;;5090447;28;20031;-81
2021/12/08 13:38:59;;;;;;;;;;;6.90;99.90;;;;;;5084719;28;20015;-81
2021/12/08 13:41:28;;;;;;;10.57;4.13;;;6.80;99.90;;;;;;5114062;28;19904;-81
2021/12/08 13:43:57;;;;;;;5.03;3.67;;;6.80;99.90;;;;;;5098259;28;20015;-80
2021/12/08 13:46:41;;;;;;;9.27;5.13;;;6.80;99.90;;;;;;5088368;28;20087;-81
2021/12/08 13:49:17;;;;;;;8.80;3.97;;;6.80;99.90;;;;;;5080482;28;20256;-81
2021/12/08 13:52:07;;;;;;;5.73;3.40;;;6.80;99.90;;;;;;5094561;28;20023;-81
2021/12/08 13:54:45;;;;;;;7.50;3.67;;;6.80;99.90;;;;;;5094121;28;20035;-80
2021/12/08 13:57:30;;;;;;;5.23;3.40;;;6.80;99.90;;;;;;5097524;28;20024;-81
2021/12/08 14:00:11;;;;;;;5.80;3.93;;;6.80;99.90;;;;;;5088393;28;20030;-81
2021/12/08 14:02:36;;;;;;;6.43;3.83;;;6.80;99.90;;;;;;5096637;28;20039;-81
2021/12/08 14:05:23;;;;;;;8.17;4.20;;;6.70;99.90;;;;;;5102155;28;20036;-81
2021/12/08 14:08:29;;;;;;;6.43;3.50;;;6.70;99.90;;;;;;5093026;28;20245;-81